»·PEaware :: SKY274 KORS-KEAT

SKY274 :: KORS-KEAT

FLIGHT INFORMATION

Flight Status: Arrived
Operator:
Sky High Charters
More flights by this operator :: More flights under this callsign
Pilot: Miguel Angel F. (25809)
Aircraft: BEECH AIRCRAFT A90-E90 KING AIR
(BE9L)
More flights by this aircraft type
Origin: KORS Orcas I
United States
Destination: KEAT Pangborn Meml
United States
More flights between these airports :: More routes between these airports
Route: FEGBA2 FEGBA SEA V2 ELN V25 EAT
File this flight plan on PilotEdge
Remarks: SCENARIO 3
Altitude:
(Current/Filed)
9,000ft
Speed:
(Current/Filed)
180kts
Departed: 22-Sep-19 09:26 PM
Arrived: 22-Sep-19 10:30 PM
Distance/Time
Traveled:
134nm/1:04
Distance/Time
To Go:
Arrived

Flight Plot

Page will automatically refresh every two minutes.

Flight plan parsing failed; only flown route is shown


Map Options




Map Legend


Flown Route
Filed Route
Departure Airport
Arrival Airport
Navaid (VOR, NDB)
Fix

Horizontal Profiles

Position Reports

Time Latitude Longitude Heading Altitude Ground
Speed
22-Sep-19 21:15 48.705347 -122.909787 252 35ft 0kts
22-Sep-19 21:16 48.705347 -122.909787 252 35ft 0kts
22-Sep-19 21:18 48.709707 -122.909368 233 24ft 0kts
22-Sep-19 21:19 48.709707 -122.909368 233 24ft 0kts
22-Sep-19 21:20 48.709707 -122.909368 233 24ft 0kts
22-Sep-19 21:21 48.709707 -122.909368 233 24ft 0kts
22-Sep-19 21:22 48.709707 -122.909368 233 24ft 0kts
22-Sep-19 21:23 48.709706 -122.909368 233 24ft 0kts
22-Sep-19 21:24 48.711325 -122.909976 0 20ft 20kts
22-Sep-19 21:25 48.697759 -122.910741 183 501ft 119kts
22-Sep-19 21:26 48.661828 -122.912751 175 2313ft 154kts
22-Sep-19 21:27 48.621070 -122.892574 156 4323ft 153kts
22-Sep-19 21:28 48.579323 -122.867465 161 5850ft 166kts
22-Sep-19 21:29 48.536099 -122.844091 160 7354ft 164kts
22-Sep-19 21:30 48.493754 -122.820821 163 8848ft 160kts
22-Sep-19 21:31 48.444453 -122.795757 162 8959ft 205kts
22-Sep-19 21:32 48.388599 -122.767734 162 8954ft 213kts
22-Sep-19 21:33 48.332485 -122.739959 163 8953ft 214kts
22-Sep-19 21:34 48.275105 -122.713011 163 8954ft 214kts
22-Sep-19 21:35 48.218599 -122.686494 163 8953ft 209kts
22-Sep-19 21:36 48.163192 -122.660486 163 8953ft 207kts
22-Sep-19 21:37 48.107902 -122.634563 163 8953ft 207kts
22-Sep-19 21:38 48.052376 -122.608571 163 8953ft 207kts
22-Sep-19 21:39 47.997167 -122.582753 163 8953ft 207kts
22-Sep-19 21:40 47.941819 -122.556927 163 8965ft 208kts
22-Sep-19 21:41 47.887399 -122.526355 158 8978ft 208kts
22-Sep-19 21:42 47.833582 -122.493132 158 8991ft 209kts
22-Sep-19 21:43 47.778632 -122.462770 161 8992ft 213kts
22-Sep-19 21:44 47.721863 -122.433007 161 8991ft 217kts
22-Sep-19 21:45 47.664663 -122.403009 161 8991ft 217kts
22-Sep-19 21:46 47.607452 -122.374667 166 8991ft 217kts
22-Sep-19 21:47 47.549536 -122.347216 162 8990ft 215kts
22-Sep-19 21:48 47.499581 -122.319005 164 9009ft 189kts
22-Sep-19 21:49 47.444121 -122.305023 177 8994ft 208kts
22-Sep-19 21:50 47.420722 -122.232881 97 8996ft 215kts
22-Sep-19 21:51 47.402955 -122.148882 110 8998ft 214kts
22-Sep-19 21:52 47.386123 -122.063938 109 9013ft 214kts
22-Sep-19 21:53 47.368294 -121.979693 107 9030ft 214kts
22-Sep-19 21:54 47.350926 -121.895737 109 9045ft 213kts
22-Sep-19 21:55 47.332278 -121.811907 109 9045ft 215kts
22-Sep-19 21:56 47.313534 -121.727732 109 9091ft 215kts
22-Sep-19 21:57 47.295496 -121.642636 108 9091ft 216kts
22-Sep-19 21:58 47.277413 -121.557942 108 9091ft 216kts
22-Sep-19 21:59 47.259386 -121.472868 105 9091ft 217kts
22-Sep-19 22:00 47.243177 -121.386873 106 9091ft 217kts
22-Sep-19 22:01 47.226947 -121.300832 106 9072ft 217kts
22-Sep-19 22:02 47.210711 -121.214789 106 9072ft 217kts
22-Sep-19 22:03 47.208448 -121.130338 61 9058ft 218kts
22-Sep-19 22:04 47.235010 -121.049185 66 9035ft 219kts
22-Sep-19 22:05 47.259476 -120.966174 67 8990ft 220kts
22-Sep-19 22:06 47.283632 -120.883218 67 9009ft 219kts
22-Sep-19 22:07 47.307759 -120.799996 67 8965ft 222kts
22-Sep-19 22:08 47.333128 -120.712161 67 8268ft 237kts
22-Sep-19 22:09 47.357679 -120.626873 67 8007ft 210kts
22-Sep-19 22:10 47.380495 -120.547323 67 8007ft 215kts
22-Sep-19 22:11 47.404089 -120.464753 68 8002ft 219kts
22-Sep-19 22:12 47.401738 -120.375312 94 8002ft 218kts
22-Sep-19 22:13 47.397497 -120.291866 95 7345ft 181kts
22-Sep-19 22:14 47.393716 -120.215978 93 6648ft 192kts
22-Sep-19 22:15 47.403242 -120.137116 69 5949ft 199kts
22-Sep-19 22:16 47.433643 -120.068913 45 5390ft 194kts
22-Sep-19 22:17 47.475823 -120.026698 23 5382ft 178kts
22-Sep-19 22:18 47.523438 -120.010501 2 5337ft 175kts
22-Sep-19 22:19 47.576652 -120.024424 333 5337ft 221kts
22-Sep-19 22:20 47.619028 -120.091367 291 5333ft 229kts
22-Sep-19 22:21 47.621121 -120.180609 250 5133ft 192kts
22-Sep-19 22:22 47.597794 -120.235016 222 5135ft 152kts
22-Sep-19 22:23 47.559068 -120.270752 208 4671ft 169kts
22-Sep-19 22:24 47.520109 -120.301482 208 3926ft 127kts
22-Sep-19 22:25 47.487776 -120.318771 178 3309ft 127kts
22-Sep-19 22:26 47.458899 -120.295470 137 2664ft 119kts
22-Sep-19 22:27 47.435250 -120.260722 135 2036ft 120kts
22-Sep-19 22:28 47.411829 -120.226300 135 1527ft 111kts
22-Sep-19 22:29 47.400865 -120.208338 69 1252ft 15kts

Navigation Log

Ident Type
Flight plan parsing failed, navigation log unavailable